TimeAKST,TemperatureF,Dew PointF,Humidity,Sea Level PressureIn,VisibilityMPH,Wind Direction,Wind SpeedMPH,Gust SpeedMPH,PrecipitationIn,Events,Conditions,WindDirDegrees,DateUTC
12:58 AM,-14.1,-18.9,79,30.00,10.0,North,10.4,-,N/A,,Clear,360,2013-12-29 09:58:00
1:58 AM,-13.0,-18.9,75,29.99,10.0,North,11.5,-,N/A,,Clear,360,2013-12-29 10:58:00
2:58 AM,-13.0,-18.9,75,30.00,10.0,Calm,Calm,-,N/A,,Clear,0,2013-12-29 11:58:00
3:58 AM,-14.1,-20.0,75,29.98,10.0,North,10.4,-,N/A,,Clear,360,2013-12-29 12:58:00
4:58 AM,-13.0,-18.9,75,29.97,10.0,North,10.4,-,N/A,,Clear,10,2013-12-29 13:58:00
5:58 AM,-14.1,-18.9,79,29.96,10.0,North,11.5,-,N/A,,Clear,10,2013-12-29 14:58:00
6:58 AM,-13.0,-18.0,78,29.95,10.0,North,13.8,-,N/A,,Partly Cloudy,360,2013-12-29 15:58:00
7:06 AM,-11.2,-18.4,70,29.91,10.0,North,12.7,-,N/A,,Mostly Cloudy,360,2013-12-29 16:06:00
7:53 AM,-11.2,-18.4,70,29.89,10.0,North,10.4,-,N/A,,Scattered Clouds,360,2013-12-29 16:53:00
7:58 AM,-11.9,-18.0,74,29.93,10.0,North,11.5,-,N/A,,Partly Cloudy,360,2013-12-29 16:58:00
8:24 AM,-11.2,-18.4,70,29.88,10.0,North,13.8,-,N/A,,Mostly Cloudy,360,2013-12-29 17:24:00
8:58 AM,-11.0,-17.0,75,29.92,10.0,North,12.7,-,N/A,,Overcast,360,2013-12-29 17:58:00
9:58 AM,-9.9,-16.1,74,29.91,10.0,North,11.5,-,N/A,,Overcast,360,2013-12-29 18:58:00
10:31 AM,-9.4,-16.6,71,29.87,10.0,North,12.7,-,N/A,,Scattered Clouds,350,2013-12-29 19:31:00
10:58 AM,-11.0,-17.0,75,29.91,10.0,North,10.4,-,N/A,,Clear,360,2013-12-29 19:58:00
11:49 AM,-11.2,-16.6,77,29.86,10.0,North,11.5,-,N/A,,Mostly Cloudy,360,2013-12-29 20:49:00
11:58 AM,-11.0,-16.1,78,29.90,10.0,North,11.5,-,N/A,,Mostly Cloudy,10,2013-12-29 20:58:00
12:13 PM,-9.4,-16.6,71,29.86,10.0,North,12.7,-,N/A,,Overcast,360,2013-12-29 21:13:00
12:58 PM,-8.0,-14.1,75,29.88,10.0,North,12.7,-,N/A,,Overcast,360,2013-12-29 21:58:00
1:29 PM,-5.8,-11.2,77,29.84,10.0,North,15.0,-,N/A,,Overcast,360,2013-12-29 22:29:00
1:47 PM,-5.8,-9.4,84,29.83,10.0,North,12.7,-,N/A,,Overcast,350,2013-12-29 22:47:00
1:58 PM,-5.1,-9.9,80,29.87,10.0,North,15.0,-,N/A,,Overcast,360,2013-12-29 22:58:00
2:43 PM,-4.0,-9.4,78,29.82,4.0,North,13.8,-,0.00,Snow,Light Snow,360,2013-12-29 23:43:00
2:58 PM,-2.0,-8.0,76,29.85,3.0,North,13.8,-,0.00,Snow,Light Snow,360,2013-12-29 23:58:00
3:04 PM,-2.2,-7.6,78,29.81,2.5,North,15.0,-,0.00,Snow,Light Snow,360,2013-12-30 00:04:00
3:14 PM,-2.2,-7.6,78,29.81,3.0,North,15.0,-,0.00,Snow,Light Snow,350,2013-12-30 00:14:00
3:58 PM,-0.9,-6.0,79,29.84,4.0,North,15.0,-,0.00,Snow,Light Snow,360,2013-12-30 00:58:00
4:52 PM,1.4,-2.2,85,29.78,6.0,North,13.8,-,N/A,Snow,Light Snow,350,2013-12-30 01:52:00
4:58 PM,1.0,-2.9,83,29.78,6.0,North,15.0,-,N/A,Snow,Light Snow,350,2013-12-30 01:58:00
5:20 PM,1.4,-2.2,85,29.78,4.0,North,15.0,-,0.00,Snow,Light Snow,350,2013-12-30 02:20:00
5:32 PM,1.4,-2.2,85,29.77,2.5,North,15.0,-,0.00,Snow,Light Snow,360,2013-12-30 02:32:00
5:38 PM,3.2,-0.4,85,29.77,2.5,North,16.1,-,0.00,Snow,Light Snow,360,2013-12-30 02:38:00
5:49 PM,3.2,-0.4,85,29.77,3.0,North,15.0,-,0.00,Snow,Light Snow,360,2013-12-30 02:49:00
5:58 PM,3.9,-0.0,84,29.77,3.0,North,13.8,-,0.00,Snow,Light Snow,350,2013-12-30 02:58:00
6:05 PM,3.2,-0.4,85,29.76,2.5,North,15.0,-,0.00,Snow,Light Snow,350,2013-12-30 03:05:00
6:28 PM,5.0,1.4,85,29.76,4.0,North,15.0,-,0.00,Snow,Light Snow,360,2013-12-30 03:28:00
6:41 PM,6.8,3.2,85,29.76,8.0,North,13.8,-,0.00,Snow,Light Snow,350,2013-12-30 03:41:00
6:58 PM,6.1,3.0,87,29.75,9.0,North,12.7,-,0.00,Snow,Light Snow,350,2013-12-30 03:58:00
7:43 PM,8.6,5.0,85,29.75,6.0,North,15.0,-,0.00,Snow,Light Snow,360,2013-12-30 04:43:00
7:58 PM,9.0,6.1,88,29.74,9.0,North,15.0,-,0.00,Snow,Light Snow,350,2013-12-30 04:58:00
8:58 PM,9.0,6.1,88,29.73,10.0,North,11.5,-,0.00,,Overcast,350,2013-12-30 05:58:00
9:16 PM,10.4,6.8,85,29.73,10.0,North,5.8,-,N/A,,Overcast,10,2013-12-30 06:16:00
9:37 PM,10.4,8.6,92,29.72,10.0,North,4.6,-,N/A,,Overcast,360,2013-12-30 06:37:00
9:58 PM,12.0,9.0,88,29.72,10.0,North,5.8,-,0.00,Snow,Light Snow,10,2013-12-30 06:58:00
10:04 PM,12.2,8.6,85,29.72,9.0,North,8.1,-,0.00,Snow,Light Snow,350,2013-12-30 07:04:00
10:58 PM,12.9,10.0,88,29.71,10.0,North,10.4,-,0.00,,Overcast,360,2013-12-30 07:58:00
11:58 PM,14.0,10.9,88,29.70,10.0,North,10.4,-,N/A,,Overcast,360,2013-12-30 08:58:00